Flight Track Log - Related Links

Times and Time Zones

All times are in EDT time to prevent confusion due to time zone crossing. See the DAL3676 flight status page for this flight to view local times or setup timezone preferences in your user account.

Time Position Orientation Groundspeed Altitude Reporting Facility
EDT Latitude Longitude Course Direction KTS MPH feet Rate Location/Type
Sat 05:36:44 PM 39.7000 -86.3000 313° West 135 155 1,300  Level Indianapolis TRACON
Sat 05:37:20 PM 39.6833 -86.3167 218° Southwest 141 162 2,200 1,610 Climbing Indianapolis TRACON
Sat 05:38:06 PM 39.6769 -86.3689 261° West 161 185 3,500 1,778 Climbing Indianapolis Center
Sat 05:39:00 PM 39.9700 -86.5199 323° Northwest  Level FlightAware Approximate
Sat 05:39:08 PM 39.7467 -86.3847 350° North 241 277 5,400  Level Indianapolis Center
Sat 05:40:00 PM 40.0540 -86.6039 323° Northwest  Level FlightAware Approximate
Sat 05:40:09 PM 39.8269 -86.3919 356° North 275 316 6,000  Level Indianapolis Center
Sat 05:41:00 PM 40.1380 -86.6880 323° Northwest  Level FlightAware Approximate
Sat 05:41:11 PM 39.9067 -86.4031 354° North 285 328 6,000  Level Indianapolis Center
Sat 05:42:00 PM 40.2170 -86.7853 313° West  Level Estimated
Sat 05:42:12 PM 39.9856 -86.4178 352° North 288 331 8,500  Level Indianapolis Center
Sat 05:43:13 PM 40.0608 -86.4633 335° Northwest 298 343 10,500 1,707 Climbing Indianapolis Center
Sat 05:44:15 PM 40.1456 -86.5156 335° Northwest 325 374 12,000 1,659 Climbing Indianapolis Center
Sat 05:45:16 PM 40.2197 -86.6019 318° Northwest 355 409 13,900 1,770 Climbing Indianapolis Center
Sat 05:46:17 PM 40.3133 -86.6522 338° Northwest 364 419 15,600 1,463 Climbing Indianapolis Center
Sat 05:47:19 PM 40.4094 -86.7044 338° Northwest 373 429 16,900 1,415 Climbing Indianapolis Center
Sat 05:48:20 PM 40.5281 -86.7719 337° Northwest 387 445 18,500 1,328 Climbing Indianapolis Center
Sat 05:49:21 PM 40.6278 -86.8267 337° Northwest 388 447 19,600 1,122 Climbing Indianapolis Center
Sat 05:50:23 PM 40.7286 -86.8836 337° Northwest 395 455 20,800 1,220 Climbing Indianapolis Center
Sat 05:51:24 PM 40.8294 -86.9394 337° Northwest 395 455 22,100 1,082 Climbing Indianapolis Center
Sat 05:52:25 PM 40.9294 -86.9964 337° Northwest 392 451 23,000 878 Climbing Indianapolis Center
Sat 05:53:27 PM 41.0322 -87.0536 337° Northwest 402 463 23,900 909 Climbing Indianapolis Center
Sat 05:54:37 PM 41.1653 -87.1281 337° Northwest 414 476 25,000 864 Climbing Chicago Center
Sat 05:55:39 PM 41.2631 -87.2047 329° Northwest 414 476 25,800 629 Climbing Chicago Center
Sat 05:56:41 PM 41.3597 -87.2872 327° Northwest 414 476 26,300 488 Climbing Chicago Center
Sat 05:57:42 PM 41.4603 -87.3753 327° Northwest 428 493 26,800 537 Climbing Chicago Center
Sat 05:58:44 PM 41.5836 -87.4800 328° Northwest 442 509 27,400 581 Climbing Chicago Center
Sat 05:59:46 PM 41.7014 -87.5400 339° North 459 528 28,000 290 Climbing Chicago Center
Sat 06:00:48 PM 41.8200 -87.6006 339° North 461 531 28,000  Level Chicago Center
Sat 06:01:50 PM 41.9422 -87.6619 340° North 473 544 28,000  Level Chicago Center
Sat 06:02:51 PM 42.0664 -87.7269 339° North 482 555 28,000  Level Chicago Center
Sat 06:03:53 PM 42.2158 -87.8058 339° North 483 556 28,000  Level Chicago Center
Sat 06:04:55 PM 42.3308 -87.8656 339° North 480 552 28,000  Level Chicago Center
Sat 06:05:57 PM 42.4536 -87.9300 339° North 474 545 28,000  Level Chicago Center
Sat 06:06:58 PM 42.5950 -88.0044 339° North 466 536 28,000  Level Chicago Center
Sat 06:08:00 PM 42.7150 -88.0697 338° Northwest 464 534 28,000  Level Chicago Center
Sat 06:09:02 PM 42.8039 -88.1922 315° West 451 519 28,000  Level Chicago Center
Sat 06:10:03 PM 42.8939 -88.3150 315° West 456 525 28,000  Level Chicago Center
Sat 06:11:05 PM 42.9828 -88.4358 315° West 449 517 28,000  Level Chicago Center
Sat 06:12:06 PM 43.0711 -88.5558 315° West 447 514 28,000  Level Chicago Center
Sat 06:13:08 PM 43.1611 -88.6775 315° West 448 516 28,000  Level Chicago Center
Sat 06:14:10 PM 43.2511 -88.8022 315° West 453 521 28,000  Level Chicago Center
Sat 06:15:11 PM 43.3411 -88.9253 315° West 453 521 28,000  Level Chicago Center
Sat 06:16:13 PM 43.4458 -89.0703 315° West 454 522 28,000  Level Chicago Center
Sat 06:17:14 PM 43.5356 -89.1944 315° West 455 524 28,000  Level Chicago Center
Sat 06:18:16 PM 43.6233 -89.3183 314° West 452 520 28,000  Level Chicago Center
Sat 06:19:17 PM 43.7117 -89.4422 315° West 451 519 28,000  Level Chicago Center
Sat 06:20:19 PM 43.8006 -89.5658 315° West 452 520 28,000  Level Chicago Center
Sat 06:21:20 PM 43.8775 -89.7011 308° West 448 516 28,000  Level Chicago Center
Sat 06:22:22 PM 43.9464 -89.8469 303° West 452 520 28,000  Level Chicago Center
Sat 06:23:18 PM 44.0147 -89.9928 303° West 452 520 28,000  Level Minneapolis Center
Sat 06:24:19 PM 44.0833 -90.1392 303° West 451 519 28,000  Level Minneapolis Center
Sat 06:25:20 PM 44.1397 -90.2617 303° West 451 519 28,000  Level Minneapolis Center
Sat 06:26:22 PM 44.2197 -90.4322 303° West 451 519 28,000  Level Minneapolis Center
Sat 06:27:24 PM 44.2903 -90.5833 303° West 450 518 28,000  Level Minneapolis Center
Sat 06:28:25 PM 44.3561 -90.7250 303° West 449 517 28,000  Level Minneapolis Center
Sat 06:29:26 PM 44.4333 -90.8947 303° West 444 511 28,000  Level Minneapolis Center
Sat 06:30:40 PM 44.4950 -91.0294 303° West 442 509 28,000  Level Minneapolis Center
Sat 06:31:42 PM 44.5739 -91.2042 302° West 444 511 28,000 -1,122 Level Minneapolis Center
Sat 06:32:43 PM 44.6378 -91.3472 302° West 439 505 25,700 -2,164 Descending Minneapolis Center
Sat 06:33:44 PM 44.6983 -91.4814 302° West 419 482 23,600 -2,244 Descending Minneapolis Center
Sat 06:34:46 PM 44.7678 -91.6378 302° West 400 460 21,100 -2,244 Descending Minneapolis Center
Sat 06:35:47 PM 44.8253 -91.7694 302° West 398 458 19,000 -2,000 Descending Minneapolis Center
Sat 06:36:49 PM 44.8806 -91.8950 302° West 383 441 17,000 -1,733 Descending Minneapolis Center
Sat 06:38:02 PM 44.9328 -92.0158 301° West 367 422 15,100 -1,778 Descending Minneapolis Center
Sat 06:39:04 PM 44.9936 -92.1567 301° West 353 406 13,000 -1,689 Descending Minneapolis Center
Sat 06:40:17 PM 45.0417 -92.2689 301° West 338 389 11,300 -816 Descending Minneapolis Center
Sat 06:41:31 PM 45.0281 -92.4211 263° West 330 380 11,000 -132 Descending Minneapolis Center
Sat 06:42:33 PM 45.0003 -92.6000 258° West 335 386 11,000  Level Minneapolis Center
Sat 06:43:34 PM 44.9797 -92.7286 257° West 336 387 11,000 -244 Level Minneapolis Center
Sat 06:44:36 PM 44.9603 -92.8503 257° West 321 369 10,500 -976 Descending Minneapolis Center
Sat 06:45:37 PM 44.9444 -92.9514 258° West 271 312 9,000 -1,220 Descending Minneapolis Center
Sat 06:46:39 PM 44.9286 -93.0489 257° West 258 297 8,000 -1,103 Descending Minneapolis Center
Sat 06:47:53 PM 44.9658 -93.1417 300° West 283 326 6,500 -882 Descending Minneapolis Center
Sat 06:48:55 PM 45.0258 -93.2519 308° West 245 282 6,000 -293 Descending Minneapolis Center
Sat 06:49:56 PM 45.0672 -93.3242 309° West 239 275 5,900 -537 Descending Minneapolis Center
Sat 06:50:58 PM 45.0914 -93.4014 294° West 225 259 4,900 -927 Descending Minneapolis Center
Sat 06:51:59 PM 45.0383 -93.4011 180° South 213 245 4,000 -537 Descending Minneapolis Center
Sat 06:53:01 PM 44.9944 -93.3828 164° South 207 238 3,800 -581 Descending Minneapolis Center
Sat 06:54:03 PM 44.9453 -93.3439 151° Southeast 170 196 2,800 -968 Descending Minneapolis Center

Login

Don't have an account? Register now (free) for customized features, flight alerts, and more!